createdAt,value
2022-09-07T00:02:55.354Z,9.6
2022-09-07T00:05:55.335Z,12.2
2022-09-07T00:08:55.350Z,11.6
2022-09-07T00:11:55.355Z,12
2022-09-07T00:14:55.367Z,12.8
2022-09-07T00:17:55.378Z,10.7
2022-09-07T00:20:55.380Z,12.4
2022-09-07T00:23:55.391Z,12.1
2022-09-07T00:26:55.401Z,12.2
2022-09-07T00:29:55.418Z,12.8
2022-09-07T00:32:55.419Z,13.2
2022-09-07T00:35:55.431Z,12.7
2022-09-07T00:38:55.441Z,11.1
2022-09-07T00:41:55.450Z,12.4
2022-09-07T00:44:55.460Z,12.3
2022-09-07T00:47:55.469Z,11
2022-09-07T00:50:55.478Z,12.2
2022-09-07T00:53:55.510Z,11.1
2022-09-07T00:56:55.496Z,11.7
2022-09-07T00:59:55.505Z,13.1
2022-09-07T01:02:55.614Z,11.8
2022-09-07T01:05:55.529Z,12.7
2022-09-07T01:08:55.543Z,10.6
2022-09-07T01:11:55.549Z,11.5
2022-09-07T01:14:55.560Z,14.2
2022-09-07T01:17:55.568Z,11.3
2022-09-07T01:20:55.577Z,13.5
2022-09-07T01:23:55.615Z,11.6
2022-09-07T01:26:55.598Z,11.1
2022-09-07T01:29:55.603Z,11.4
2022-09-07T01:32:55.618Z,12.8
2022-09-07T01:35:55.624Z,11.9
2022-09-07T01:38:55.652Z,11.6
2022-09-07T01:41:55.648Z,12.1
2022-09-07T01:44:55.655Z,11.5
2022-09-07T01:47:55.671Z,14.6
2022-09-07T01:50:55.672Z,13.7
2022-09-07T01:53:55.694Z,11.8
2022-09-07T01:56:55.697Z,14.5
2022-09-07T01:59:55.704Z,12.3
2022-09-07T02:02:55.765Z,13.3
2022-09-07T02:05:55.726Z,11.4
2022-09-07T02:08:55.906Z,13.2
2022-09-07T02:11:55.750Z,13.3
2022-09-07T02:14:55.757Z,12.8
2022-09-07T02:17:55.772Z,13.3
2022-09-07T02:20:55.779Z,11.6
2022-09-07T02:23:55.834Z,12.5
2022-09-07T02:26:55.792Z,13.2
2022-09-07T02:29:55.802Z,11.6
2022-09-07T02:32:55.806Z,12.5
2022-09-07T02:35:55.814Z,13.5
2022-09-07T02:38:55.828Z,12.6
2022-09-07T02:41:55.828Z,13.2
2022-09-07T02:44:55.833Z,12.5
2022-09-07T02:47:55.842Z,11.8
2022-09-07T02:50:55.851Z,12.3
2022-09-07T02:53:55.871Z,13.1
2022-09-07T02:56:55.860Z,12.3
2022-09-07T02:59:55.865Z,11.8
2022-09-07T03:02:55.916Z,13.1
2022-09-07T03:05:55.880Z,11.8
2022-09-07T03:08:56.053Z,12.9
2022-09-07T03:11:55.897Z,15.9
2022-09-07T03:14:55.898Z,12.6
2022-09-07T03:17:55.914Z,12.5
2022-09-07T03:20:55.921Z,12
2022-09-07T03:23:55.941Z,13.4
2022-09-07T03:26:55.945Z,11.9
2022-09-07T03:29:55.944Z,12
2022-09-07T03:32:55.955Z,14.8
2022-09-07T03:35:55.963Z,12.9
2022-09-07T03:38:55.975Z,13.7
2022-09-07T03:41:55.971Z,11.5
2022-09-07T03:44:55.978Z,11.1
2022-09-07T03:47:55.982Z,11
2022-09-07T03:50:55.991Z,11.9
2022-09-07T03:53:56.008Z,13.2
2022-09-07T03:56:56.006Z,13.7
2022-09-07T03:59:56.005Z,11.3
2022-09-07T04:02:56.069Z,12.2
2022-09-07T04:05:56.034Z,13.1
2022-09-07T04:08:56.059Z,13.3
2022-09-07T04:11:56.044Z,13.4
2022-09-07T04:14:56.051Z,13.1
2022-09-07T04:17:56.058Z,11.4
2022-09-07T04:20:56.058Z,13.3
2022-09-07T04:23:56.085Z,12.4
2022-09-07T04:26:56.081Z,12.3
2022-09-07T04:29:56.087Z,11.3
2022-09-07T04:32:56.099Z,12.3
2022-09-07T04:35:56.115Z,11.5
2022-09-07T04:38:56.126Z,12.7
2022-09-07T04:41:56.122Z,12
2022-09-07T04:44:56.132Z,11.7
2022-09-07T04:47:56.142Z,12.8
2022-09-07T04:50:56.155Z,11.2
2022-09-07T04:53:56.187Z,12.4
2022-09-07T04:56:56.169Z,13.2
2022-09-07T04:59:56.173Z,13.4
2022-09-07T05:02:56.182Z,15.6
2022-09-07T05:05:56.188Z,16.6
2022-09-07T05:08:56.257Z,14.4
2022-09-07T05:11:56.206Z,14.9
2022-09-07T05:14:56.215Z,16.9
2022-09-07T05:17:56.294Z,15.5
2022-09-07T05:20:56.228Z,17.5
2022-09-07T05:23:56.247Z,16.3
2022-09-07T05:26:56.239Z,17.3
2022-09-07T05:30:04.315Z,16.1
2022-09-07T05:32:56.257Z,17.8
2022-09-07T05:35:56.258Z,15.9
2022-09-07T05:38:56.282Z,16.4
2022-09-07T05:41:56.280Z,14.8
2022-09-07T05:44:56.296Z,18.8
2022-09-07T05:47:56.297Z,17.9
2022-09-07T05:50:56.298Z,19.1
2022-09-07T05:53:56.327Z,17.5
2022-09-07T05:56:56.315Z,17.9
2022-09-07T05:59:56.315Z,16.7
2022-09-07T06:02:56.419Z,18.8
2022-09-07T06:05:56.336Z,17
2022-09-07T06:08:56.366Z,16.5
2022-09-07T06:11:56.364Z,14.6
2022-09-07T06:14:56.359Z,15.7
2022-09-07T06:17:56.367Z,16.3
2022-09-07T06:20:56.375Z,15.3
2022-09-07T06:23:56.402Z,13.9
2022-09-07T06:26:56.383Z,16.8
2022-09-07T06:29:56.404Z,14.6
2022-09-07T06:32:56.404Z,13.8
2022-09-07T06:35:56.412Z,14.5
2022-09-07T06:38:56.433Z,12.9
2022-09-07T06:44:56.439Z,14.3
2022-09-07T06:47:56.441Z,13.2
2022-09-07T06:50:56.448Z,13.6
2022-09-07T06:56:56.464Z,13.4
2022-09-07T06:59:56.469Z,12.8
2022-09-07T07:02:56.557Z,14.9
2022-09-07T07:05:56.479Z,13.2
2022-09-07T07:08:56.491Z,11.9
2022-09-07T07:11:56.497Z,13.2
2022-09-07T07:14:56.498Z,12.9
2022-09-07T07:18:02.479Z,13.3
2022-09-07T07:20:56.513Z,14.9
2022-09-07T07:23:56.519Z,13.7
2022-09-07T07:26:56.525Z,12.4
2022-09-07T07:29:56.528Z,12.9
2022-09-07T07:32:56.557Z,11.8
2022-09-07T07:35:56.566Z,11.5
2022-09-07T07:41:57.715Z,14.7
2022-09-07T07:47:56.568Z,10.3
2022-09-07T07:50:56.576Z,13.2
2022-09-07T07:53:56.826Z,13.6
2022-09-07T07:56:56.591Z,11.1
2022-09-07T07:59:56.596Z,11.3
2022-09-07T08:02:56.604Z,10.2
2022-09-07T08:05:56.612Z,13.2
2022-09-07T08:08:56.612Z,10.4
2022-09-07T08:11:56.648Z,12.7
2022-09-07T08:14:56.639Z,16.7
2022-09-07T08:17:56.633Z,15.2
2022-09-07T08:20:56.641Z,16.3
2022-09-07T08:23:56.649Z,26.9
2022-09-07T08:26:56.647Z,20.5
2022-09-07T08:29:56.676Z,24.3
2022-09-07T08:32:56.659Z,26.1
2022-09-07T08:35:56.664Z,22
2022-09-07T08:38:56.677Z,25.3
2022-09-07T08:41:56.677Z,23.1
2022-09-07T08:44:56.688Z,26.6
2022-09-07T08:47:56.724Z,25.4
2022-09-07T08:50:56.694Z,24
2022-09-07T08:53:56.697Z,21.5
2022-09-07T08:59:56.704Z,21.7
2022-09-07T09:05:56.860Z,19.3
2022-09-07T09:08:56.776Z,18.6
2022-09-07T09:11:56.720Z,19.5
2022-09-07T09:14:56.726Z,17
2022-09-07T09:17:56.733Z,16.5
2022-09-07T09:20:56.731Z,19.3
2022-09-07T09:23:56.764Z,19.1
2022-09-07T09:26:56.744Z,18
2022-09-07T09:29:56.741Z,19.1
2022-09-07T09:32:56.747Z,19.7
2022-09-07T09:35:56.748Z,15
2022-09-07T09:38:56.748Z,17.1
2022-09-07T09:41:56.773Z,14.5
2022-09-07T09:44:56.757Z,16.7
2022-09-07T09:47:56.794Z,15.2
2022-09-07T09:53:56.758Z,14.6
2022-09-07T09:56:56.765Z,15.3
2022-09-07T09:59:59.321Z,13.6
2022-09-07T10:05:56.765Z,15.1
2022-09-07T10:08:56.768Z,14.3
2022-09-07T10:12:10.836Z,12.9
2022-09-07T10:14:56.848Z,14.1
2022-09-07T10:17:56.973Z,12.8
2022-09-07T10:20:56.812Z,12.1
2022-09-07T10:23:56.813Z,14.3
2022-09-07T10:26:56.817Z,17
2022-09-07T10:29:56.826Z,13
2022-09-07T10:32:56.837Z,14.6
2022-09-07T10:35:56.866Z,11.7
2022-09-07T10:38:56.861Z,12.7
2022-09-07T10:41:56.865Z,12
2022-09-07T10:44:56.875Z,11.6
2022-09-07T10:47:56.894Z,12.9
2022-09-07T10:50:56.905Z,13.5
2022-09-07T10:56:56.920Z,11.9
2022-09-07T11:00:12.484Z,14.1
2022-09-07T11:05:56.958Z,10.8
2022-09-07T11:09:26.715Z,12.2
2022-09-07T11:12:04.687Z,12.6
2022-09-07T11:14:56.994Z,12.8
2022-09-07T11:17:57.016Z,10.4
2022-09-07T11:20:57.038Z,12
2022-09-07T11:23:57.054Z,13.1
2022-09-07T11:26:57.065Z,11.2
2022-09-07T11:29:57.147Z,12.4
2022-09-07T11:32:57.107Z,10.8
2022-09-07T11:35:57.121Z,12
2022-09-07T11:38:57.142Z,9.1
2022-09-07T11:41:57.296Z,10.5
2022-09-07T11:44:57.179Z,11.5
2022-09-07T11:47:57.225Z,10.9
2022-09-07T11:50:57.224Z,12.1
2022-09-07T11:53:57.242Z,10.6
2022-09-07T11:56:57.267Z,10.6
2022-09-07T11:59:57.280Z,10.4
2022-09-07T12:03:00.126Z,10.4
2022-09-07T12:05:57.333Z,10.5
2022-09-07T12:08:57.331Z,9.7
2022-09-07T12:11:57.353Z,11.1
2022-09-07T12:14:57.372Z,9.7
2022-09-07T12:17:57.388Z,10.8
2022-09-07T12:20:57.398Z,12.1
2022-09-07T12:23:57.434Z,13.1
2022-09-07T12:26:57.431Z,14
2022-09-07T12:29:57.460Z,13.9
2022-09-07T12:32:58.675Z,12.2
2022-09-07T12:35:57.501Z,12.3
2022-09-07T12:38:57.517Z,10.7
2022-09-07T12:44:57.560Z,9.7
2022-09-07T12:47:57.581Z,10.8
2022-09-07T12:50:57.597Z,11.9
2022-09-07T12:53:58.060Z,11.3
2022-09-07T12:59:57.678Z,9.3
2022-09-07T13:02:57.680Z,9.9
2022-09-07T13:05:57.696Z,10
2022-09-07T13:08:57.713Z,8.9
2022-09-07T13:11:57.731Z,10.5
2022-09-07T13:14:57.745Z,10.9
2022-09-07T13:17:57.790Z,10.4
2022-09-07T13:20:57.790Z,9.8
2022-09-07T13:23:57.897Z,10.9
2022-09-07T13:26:57.833Z,8.9
2022-09-07T13:29:57.852Z,10.9
2022-09-07T13:33:13.201Z,10.2
2022-09-07T13:35:57.919Z,9.4
2022-09-07T13:38:57.909Z,10.4
2022-09-07T13:41:57.933Z,9.1
2022-09-07T13:44:57.959Z,10.5
2022-09-07T13:47:57.971Z,9.7
2022-09-07T13:50:57.989Z,8.6
2022-09-07T13:53:58.039Z,10.8
2022-09-07T13:56:58.036Z,10.7
2022-09-07T13:59:58.147Z,11.4
2022-09-07T14:02:58.111Z,12.5
2022-09-07T14:05:58.087Z,11.1
2022-09-07T14:08:58.113Z,12
2022-09-07T14:11:58.177Z,11
2022-09-07T14:14:58.166Z,11.3
2022-09-07T14:17:58.186Z,10.3
2022-09-07T14:20:58.204Z,11.5
2022-09-07T14:23:58.220Z,11.1
2022-09-07T14:26:58.234Z,15.7
2022-09-07T14:29:58.278Z,10.3
2022-09-07T14:32:58.266Z,10.8
2022-09-07T14:35:58.280Z,11.6
2022-09-07T14:39:05.627Z,10
2022-09-07T14:41:58.881Z,10.5
2022-09-07T14:44:58.311Z,9.6
2022-09-07T14:47:58.347Z,10.3
2022-09-07T14:51:19.311Z,10.2
2022-09-07T14:53:58.364Z,10.6
2022-09-07T14:56:58.381Z,11.4
2022-09-07T14:59:58.393Z,10.8
2022-09-07T15:02:58.415Z,12.6
2022-09-07T15:06:01.084Z,9.1
2022-09-07T15:08:58.443Z,9.6
2022-09-07T15:11:58.461Z,9.3
2022-09-07T15:14:58.476Z,11.4
2022-09-07T15:18:03.037Z,9.6
2022-09-07T15:20:58.508Z,9
2022-09-07T15:23:58.591Z,9.3
2022-09-07T15:27:05.687Z,9.2
2022-09-07T15:29:58.552Z,8.6
2022-09-07T15:32:58.627Z,8.5
2022-09-07T15:35:58.759Z,11.7
2022-09-07T15:39:00.222Z,8.6
2022-09-07T15:42:00.490Z,7.9
2022-09-07T15:44:58.641Z,9
2022-09-07T15:47:58.669Z,10.6
2022-09-07T15:50:58.913Z,9.5
2022-09-07T15:54:14.549Z,11.3
2022-09-07T15:59:58.765Z,9.6
2022-09-07T16:03:07.033Z,7.3
2022-09-07T16:05:58.770Z,9
2022-09-07T16:08:58.789Z,10.6
2022-09-07T16:12:59.907Z,8.1
2022-09-07T16:14:58.827Z,9.4
2022-09-07T16:17:58.923Z,8.9
2022-09-07T16:20:58.860Z,10.9
2022-09-07T16:23:58.914Z,8.2
2022-09-07T16:26:58.982Z,7.7
2022-09-07T16:29:58.906Z,7.7
2022-09-07T16:32:58.980Z,9.3
2022-09-07T16:35:59.368Z,8.4
2022-09-07T16:38:59.392Z,9.6
2022-09-07T16:42:00.025Z,7.4
2022-09-07T16:46:02.448Z,8.7
2022-09-07T16:47:59.047Z,7.7
2022-09-07T16:51:02.210Z,8
2022-09-07T16:53:59.109Z,9
2022-09-07T16:56:59.100Z,9.4
2022-09-07T16:59:59.113Z,12.3
2022-09-07T17:02:59.143Z,12.2
2022-09-07T17:05:59.148Z,12.8
2022-09-07T17:08:59.165Z,12.3
2022-09-07T17:11:59.196Z,12.6
2022-09-07T17:14:59.208Z,12.1
2022-09-07T17:17:59.221Z,12.6
2022-09-07T17:20:59.226Z,19.3
2022-09-07T17:23:59.224Z,15.1
2022-09-07T17:26:59.401Z,16.1
2022-09-07T17:29:59.249Z,17.6
2022-09-07T17:32:59.301Z,16.5
2022-09-07T17:35:59.234Z,15.9
2022-09-07T17:39:21.218Z,20.1
2022-09-07T17:41:59.248Z,18
2022-09-07T17:44:59.251Z,16.8
2022-09-07T17:47:59.364Z,16
2022-09-07T17:50:59.249Z,17.4
2022-09-07T17:53:59.263Z,18.1
2022-09-07T17:56:59.264Z,18.8
2022-09-07T18:00:14.548Z,19.6
2022-09-07T18:02:59.269Z,19
2022-09-07T18:05:59.292Z,17.4
2022-09-07T18:08:59.278Z,18.1
2022-09-07T18:11:59.277Z,19.6
2022-09-07T18:14:59.268Z,20.3
2022-09-07T18:17:59.280Z,21.3
2022-09-07T18:20:59.284Z,20.8
2022-09-07T18:23:59.625Z,22.9
2022-09-07T18:26:59.289Z,20
2022-09-07T18:29:59.281Z,19.4
2022-09-07T18:32:59.371Z,19.2
2022-09-07T18:35:59.292Z,22.5
2022-09-07T18:38:59.289Z,21.2
2022-09-07T18:41:59.324Z,27.6
2022-09-07T18:47:59.311Z,25.1
2022-09-07T18:51:00.318Z,29.2
2022-09-07T18:53:59.307Z,26.8
2022-09-07T18:56:59.319Z,27.4
2022-09-07T18:59:59.375Z,28.2
2022-09-07T19:02:59.692Z,27.9
2022-09-07T19:05:59.324Z,24.4
2022-09-07T19:08:59.331Z,25.5
2022-09-07T19:11:59.337Z,25.5
2022-09-07T19:14:59.335Z,22.3
2022-09-07T19:17:59.375Z,24.1
2022-09-07T19:20:59.345Z,24.4
2022-09-07T19:23:59.355Z,24.5
2022-09-07T19:27:00.539Z,21.7
2022-09-07T19:29:59.362Z,25
2022-09-07T19:33:03.477Z,21.6
2022-09-07T19:35:59.396Z,22.2
2022-09-07T19:38:59.378Z,21
2022-09-07T19:41:59.377Z,22.2
2022-09-07T19:44:59.377Z,23.9
2022-09-07T19:47:59.382Z,23.4
2022-09-07T19:50:59.396Z,23.9
2022-09-07T19:53:59.416Z,25.7
2022-09-07T19:56:59.395Z,27.1
2022-09-07T19:59:59.403Z,26.5
2022-09-07T20:02:59.410Z,30.9
2022-09-07T20:05:59.414Z,29.7
2022-09-07T20:08:59.412Z,30.1
2022-09-07T20:11:59.445Z,32
2022-09-07T20:14:59.427Z,31.3
2022-09-07T20:17:59.427Z,30.5
2022-09-07T20:20:59.443Z,30.3
2022-09-07T20:23:59.437Z,31
2022-09-07T20:26:59.450Z,29.5
2022-09-07T20:29:59.473Z,27.5
2022-09-07T20:32:59.466Z,32.2
2022-09-07T20:35:59.469Z,30.1
2022-09-07T20:38:59.476Z,31.4
2022-09-07T20:41:59.481Z,30.2
2022-09-07T20:44:59.495Z,30.6
2022-09-07T20:47:59.587Z,31.1
2022-09-07T20:50:59.496Z,33.3
2022-09-07T20:53:59.492Z,34.2
2022-09-07T20:57:03.348Z,30.8
2022-09-07T20:59:59.523Z,32.8
2022-09-07T21:02:59.514Z,36.1
2022-09-07T21:05:59.553Z,37.2
2022-09-07T21:08:59.520Z,34.8
2022-09-07T21:11:59.539Z,36.8
2022-09-07T21:14:59.537Z,37.6
2022-09-07T21:17:59.554Z,37.8
2022-09-07T21:21:18.694Z,38.2
2022-09-07T21:23:59.746Z,40
2022-09-07T21:26:59.567Z,38.7
2022-09-07T21:29:59.586Z,41.6
2022-09-07T21:33:02.896Z,39.9
2022-09-07T21:35:59.591Z,41.3
2022-09-07T21:38:59.603Z,40.4
2022-09-07T21:41:59.627Z,37.2
2022-09-07T21:44:59.622Z,38.8
2022-09-07T21:47:59.623Z,37.8
2022-09-07T21:50:59.631Z,39.5
2022-09-07T21:53:59.640Z,43
2022-09-07T21:56:59.644Z,38.3
2022-09-07T21:59:59.772Z,42.8
2022-09-07T22:02:59.664Z,43.5
2022-09-07T22:05:59.669Z,43.7
2022-09-07T22:08:59.677Z,44.9
2022-09-07T22:11:59.685Z,45.5
2022-09-07T22:14:59.696Z,49.9
2022-09-07T22:17:59.727Z,47.1
2022-09-07T22:20:59.708Z,52.2
2022-09-07T22:23:59.723Z,52.1
2022-09-07T22:26:59.733Z,52.5
2022-09-07T22:29:59.737Z,54.6
2022-09-07T22:32:59.745Z,51.4
2022-09-07T22:35:59.916Z,54.2
2022-09-07T22:38:59.763Z,53.4
2022-09-07T22:41:59.769Z,51.9
2022-09-07T22:44:59.782Z,50.5
2022-09-07T22:47:59.792Z,48.5
2022-09-07T22:50:59.797Z,52
2022-09-07T22:53:59.838Z,48.8
2022-09-07T22:56:59.821Z,49.1
2022-09-07T22:59:59.834Z,48.3
2022-09-07T23:02:59.842Z,52.9
2022-09-07T23:05:59.852Z,51.5
2022-09-07T23:08:59.860Z,54.3
2022-09-07T23:11:59.898Z,50.9
2022-09-07T23:14:59.885Z,52
2022-09-07T23:17:59.899Z,50.3
2022-09-07T23:21:00.659Z,51.1
2022-09-07T23:23:59.930Z,50.8
2022-09-07T23:26:59.930Z,55.3
2022-09-07T23:29:59.973Z,54.9
2022-09-07T23:32:59.962Z,54.1
2022-09-07T23:35:59.975Z,53.2
2022-09-07T23:38:59.984Z,53.7
2022-09-07T23:41:59.985Z,51.4
2022-09-07T23:45:00.003Z,52.8
2022-09-07T23:48:00.043Z,53.6
2022-09-07T23:51:00.044Z,52.3
2022-09-07T23:54:00.069Z,51.3
2022-09-07T23:57:00.069Z,53.3
